Saturday, January 19, 2019, 6:48 PM CST
Back to Local

KJOT, Joliet, Joliet Regional Airport

Location: Joliet, IL, United States Lat: 41.518
Local Time: 6:48 PM CST ( 0:48 GMT) Lon: -88.175
Time Zone: US/Central Elev: 580 ft

Show me the last for .
Show Decoded

2019-01-19 18:15 METAR KJOT 200015Z AUTO 36019G24KT 10SM -SN OVC018 M04/M07 A3001 RMK AO2
                 T10401070 =
2019-01-19 17:55 METAR KJOT 192355Z AUTO 36013G21KT 10SM OVC018 M04/M07 A3001 RMK AO2 T10361066
                 11018 21036 =
2019-01-19 17:35 METAR KJOT 192335Z AUTO 01013G22KT 10SM OVC018 M03/M06 A3001 RMK AO2 T10331065 =
2019-01-19 17:15 METAR KJOT 192315Z AUTO 02017G23KT 10SM OVC016 M03/M06 A3000 RMK AO2 T10311062 =
2019-01-19 16:55 METAR KJOT 192255Z AUTO 01016G23KT 7SM OVC016 M03/M06 A2999 RMK AO2 T10301060 =
2019-01-19 16:35 METAR KJOT 192235Z AUTO 02017G22KT 10SM OVC020 M03/M06 A2998 RMK AO2 T10261060 =
2019-01-19 16:15 METAR KJOT 192215Z AUTO 03020G26KT 7SM OVC020 M02/M06 A2998 RMK AO2 T10251063 =
2019-01-19 15:55 METAR KJOT 192155Z AUTO 02017G22KT 10SM OVC018 M03/M06 A2998 RMK AO2 T10261059 =
2019-01-19 15:35 METAR KJOT 192135Z AUTO 02016G26KT 7SM OVC016 M02/M06 A2997 RMK AO2 T10251056 =
2019-01-19 15:15 METAR KJOT 192115Z AUTO 01017G26KT 10SM OVC016 M02/M05 A2995 RMK AO2 T10251053 =
2019-01-19 14:55 METAR KJOT 192055Z AUTO 01016G23KT 10SM OVC016 M02/M05 A2994 RMK AO2 T10231052 =
2019-01-19 14:35 METAR KJOT 192035Z AUTO 02019G26KT 7SM OVC014 M02/M05 A2993 RMK AO2 T10231052 =
2019-01-19 14:15 METAR KJOT 192015Z AUTO 02012G25KT 7SM OVC014 M02/M05 A2993 RMK AO2 T10251050 =
2019-01-19 13:55 METAR KJOT 191955Z AUTO 02016G27KT 7SM OVC014 M02/M05 A2994 RMK AO2 T10251050 =
2019-01-19 13:35 METAR KJOT 191935Z AUTO 03015G26KT 7SM OVC014 M02/M05 A2995 RMK AO2 T10241052 =
2019-01-19 13:15 METAR KJOT 191915Z AUTO 03019G25KT 7SM OVC014 M02/M05 A2995 RMK AO2 T10231050 =
2019-01-19 12:55 METAR KJOT 191855Z AUTO 03016G26KT 7SM OVC014 M02/M05 A2995 RMK AO2 T10211048 =
2019-01-19 12:35 METAR KJOT 191835Z AUTO 03015G29KT 10SM OVC016 M02/M05 A2997 RMK AO2 T10201047 =
2019-01-19 12:15 METAR KJOT 191815Z AUTO 03017G23KT 7SM OVC014 M02/M05 A2998 RMK AO2 T10201047 =
2019-01-19 11:55 METAR KJOT 191755Z AUTO 03019G23KT 7SM OVC014 M02/M04 A2999 RMK AO2 T10171044
                 11015 21022 =
2019-01-19 11:35 METAR KJOT 191735Z AUTO 04016G23KT 7SM OVC014 M02/M04 A3000 RMK AO2 T10171043 =
2019-01-19 11:15 METAR KJOT 191715Z AUTO 03013G20KT 7SM OVC014 M02/M04 A3001 RMK AO2 T10161041 =
2019-01-19 10:55 METAR KJOT 191655Z AUTO 04015G23KT 4SM -SN OVC014 M02/M04 A3001 RMK AO2
                 T10161036 =
2019-01-19 10:35 METAR KJOT 191635Z AUTO 04016G20KT 1 1/4SM -SN OVC010 M02/M03 A3001 RMK AO2
                 T10201034 =
2019-01-19 10:15 METAR KJOT 191615Z AUTO 03010KT 1SM -SN OVC010 M02/M03 A3001 RMK AO2 T10211033 =
2019-01-19 09:55 METAR KJOT 191555Z AUTO 03016G22KT 1 1/4SM -SN OVC013 M02/M04 A3000 RMK AO2 VIS
                 1V2 1/2 T10211036 =
2019-01-19 09:35 METAR KJOT 191535Z AUTO 03014G19KT 2 1/2SM -SN OVC013 M02/M03 A3002 RMK AO2
                 T10201035 =
2019-01-19 09:15 METAR KJOT 191515Z AUTO 04015G22KT 2SM -SN OVC013 M02/M03 A3002 RMK AO2 VIS 1
                 1/2V3 T10181033 =
2019-01-19 08:55 METAR KJOT 191455Z AUTO 04013G23KT 1 3/4SM -SN SCT009 OVC013 M02/M03 A3000 RMK
                 AO2 T10171031 =
2019-01-19 08:35 METAR KJOT 191435Z AUTO 03014G21KT 2SM -SN OVC011 M02/M03 A2999 RMK AO2
                 T10171030 =
2019-01-19 08:15 METAR KJOT 191415Z AUTO 04013G18KT 2SM -SN OVC011 M02/M03 A2999 RMK AO2
                 T10171028 =
2019-01-19 07:55 METAR KJOT 191355Z AUTO 04012G23KT 2SM -SN OVC011 M02/M03 A2998 RMK AO2
                 T10171026 =
2019-01-19 07:35 METAR KJOT 191335Z AUTO 03013KT 1SM -SN OVC011 M02/M02 A2999 RMK AO2 T10161025 =
2019-01-19 07:15 METAR KJOT 191315Z AUTO 04012G21KT 2SM -SN OVC009 M02/M02 A2999 RMK AO2
                 T10161022 =
2019-01-19 06:55 METAR KJOT 191255Z AUTO 04013KT 2SM -SN OVC009 M01/M02 A3000 RMK AO2 T10151021 =
2019-01-19 06:35 METAR KJOT 191235Z AUTO 05012G19KT 2 1/2SM -SN BKN007 BKN011 OVC025 M02/M02
                 A3000 RMK AO2 T10161021 =
2019-01-19 06:15 METAR KJOT 191215Z AUTO 04010G17KT 2SM -SN OVC007 M01/M02 A3000 RMK AO2
                 T10151020 =
2019-01-19 05:55 METAR KJOT 191155Z AUTO 04011KT 1 1/2SM -SN OVC007 M01/M02 A2999 RMK AO2 60001
                 70001 T10151018 11005 21015 =
2019-01-19 05:35 METAR KJOT 191135Z AUTO 04011G17KT 1 1/2SM -SN OVC010 M01/M02 A2998 RMK AO2
                 T10151018 =
2019-01-19 05:15 METAR KJOT 191115Z AUTO 04010G18KT 1 1/4SM -SN OVC009 M01/M02 A2999 RMK AO2
                 T10151017 =
2019-01-19 04:55 METAR KJOT 191055Z AUTO 04010G14KT 1 1/4SM -SN OVC009 M01/M02 A2999 RMK AO2
                 P0001 T10151017 =
2019-01-19 04:35 METAR KJOT 191035Z AUTO 04009KT 1 3/4SM -SN OVC009 M01/M02 A2999 RMK AO2
                 T10131017 =
2019-01-19 04:15 METAR KJOT 191015Z AUTO 05011G16KT 1 1/2SM -SN OVC007 M01/M02 A2998 RMK AO2
                 T10131016 =
2019-01-19 03:55 METAR KJOT 190955Z AUTO 06011G14KT 1SM -SN OVC007 M01/M01 A2999 RMK AO2
                 T10121015 =
2019-01-19 03:35 METAR KJOT 190935Z AUTO 04011G17KT 1SM SN OVC007 M01/M02 A2999 RMK AO2 T10111016
                 =
2019-01-19 03:15 METAR KJOT 190915Z AUTO 05011G20KT 1 3/4SM -SN OVC009 M01/M01 A2999 RMK AO2
                 T10101015 =
2019-01-19 02:55 METAR KJOT 190855Z AUTO 06014G20KT 1 3/4SM -SN OVC009 M01/M02 A3001 RMK AO2
                 T10081016 =
2019-01-19 02:35 METAR KJOT 190835Z AUTO 06013KT 3SM -SN OVC011 M01/M02 A3002 RMK AO2 T10061017 =
2019-01-19 02:15 METAR KJOT 190815Z AUTO 06012G19KT 7SM BKN011 OVC020 00/M02 A3003 RMK AO2
                 T10051018 =
2019-01-19 01:55 METAR KJOT 190755Z AUTO 06012G17KT 10SM SCT011 OVC022 00/M02 A3004 RMK AO2
                 T10051020 =
2019-01-19 01:35 METAR KJOT 190735Z AUTO 06015G19KT 10SM SCT011 OVC022 00/M02 A3004 RMK AO2
                 T10051019 =
2019-01-19 01:15 METAR KJOT 190715Z AUTO 06013G17KT 10SM SCT011 OVC022 00/M02 A3004 RMK AO2 LTG
                 DSNT S T10051019 =
2019-01-19 00:55 METAR KJOT 190655Z AUTO 06014KT 10SM OVC022 M01/M02 A3006 RMK AO2 T10061018 =
2019-01-19 00:35 METAR KJOT 190635Z AUTO 07012G17KT 7SM OVC024 M01/M02 A3006 RMK AO2 T10071018 =
2019-01-19 00:15 METAR KJOT 190615Z AUTO 06011G18KT 2 1/2SM -SN SCT011 OVC024 M01/M02 A3008 RMK
                 AO2 T10071020 =
2019-01-18 23:55 METAR KJOT 190555Z AUTO 05013G19KT 10SM OVC022 00/M02 A3008 RMK AO2 T10051025
                 10000 21005 400051005 =
2019-01-18 23:35 METAR KJOT 190535Z AUTO 05013G16KT 10SM OVC024 00/M03 A3009 RMK AO2 T10051026 =
2019-01-18 23:15 METAR KJOT 190515Z AUTO 06012KT 10SM OVC024 00/M03 A3010 RMK AO2 LTG DSNT S
                 T10051027 =
2019-01-18 22:55 METAR KJOT 190455Z AUTO 05010G17KT 10SM OVC024 00/M03 A3009 RMK AO2 LTG DSNT S
                 T10051028 =
2019-01-18 22:35 METAR KJOT 190435Z AUTO 06011G18KT 10SM OVC024 00/M03 A3007 RMK AO2 T10051030 =
2019-01-18 22:15 METAR KJOT 190415Z AUTO 05012G19KT 10SM OVC024 00/M03 A3007 RMK AO2 T10051030 =
2019-01-18 21:55 METAR KJOT 190355Z AUTO 07009G20KT 10SM OVC022 00/M03 A3009 RMK AO2 T10031034 =
2019-01-18 21:35 METAR KJOT 190335Z AUTO 07013G17KT 10SM OVC022 00/M03 A3009 RMK AO2 T10021035 =
2019-01-18 21:15 METAR KJOT 190315Z AUTO 07013KT 10SM OVC022 00/M03 A3010 RMK AO2 T10011032 =
2019-01-18 20:55 METAR KJOT 190255Z AUTO 08010KT 10SM OVC020 00/M03 A3011 RMK AO2 T00001029 =
2019-01-18 20:35 METAR KJOT 190235Z AUTO 08010G16KT 10SM OVC020 00/M03 A3012 RMK AO2 T00001029 =
2019-01-18 20:15 METAR KJOT 190215Z AUTO 07010G14KT 10SM OVC018 00/M03 A3011 RMK AO2 T00001027 =
2019-01-18 19:55 METAR KJOT 190155Z AUTO 08009KT 10SM OVC016 00/M03 A3012 RMK AO2 T00001028 =
2019-01-18 19:35 METAR KJOT 190135Z AUTO 08010G14KT 10SM OVC016 00/M03 A3012 RMK AO2 T10011030 =
2019-01-18 19:15 METAR KJOT 190115Z AUTO 07013G16KT 10SM OVC016 00/M03 A3011 RMK AO2 T10031031 =
2019-01-18 18:55 METAR KJOT 190055Z AUTO 06011G16KT 10SM OVC016 00/M03 A3011 RMK AO2 T10021033 =

Support USWX by starting your Amazon purchase here.